Time;durP1;ratioP1;P1;durP2;ratioP2;P2;SDS_P1;SDS_P2;PMS_P1;PMS_P2;Temp;Humidity;BMP_temperature;BMP_pressure;BME280_temperature;BME280_humidity;BME280_pressure;Samples;Min_cycle;Max_cycle;Signal;HPM_P1;HPM_P2
2022/10/18 00:01:14;;;;;;;17.60;7.90;;;15.20;99.90;;;;;;5091839;28;20571;-63
2022/10/18 00:03:42;;;;;;;11.90;7.10;;;15.30;99.90;;;;;;5091800;28;20657;-63
2022/10/18 00:06:12;;;;;;;9.20;7.40;;;15.30;99.90;;;;;;5091556;28;20617;-63
2022/10/18 00:08:40;;;;;;;8.23;7.07;;;15.30;99.90;;;;;;5092927;28;20609;-63
2022/10/18 00:11:08;;;;;;;8.93;7.37;;;15.40;99.90;;;;;;5091436;28;20628;-63
2022/10/18 00:13:37;;;;;;;14.23;7.80;;;15.40;99.90;;;;;;5093020;28;21171;-63
2022/10/18 00:16:10;;;;;;;12.50;6.43;;;15.40;99.90;;;;;;5089907;28;20620;-63
2022/10/18 00:18:38;;;;;;;7.80;6.00;;;15.40;99.90;;;;;;5072977;28;20589;-63
2022/10/18 00:21:10;;;;;;;12.33;7.70;;;15.50;99.90;;;;;;5072084;28;20610;-63
2022/10/18 00:23:40;;;;;;;9.63;7.50;;;15.50;99.90;;;;;;5071375;28;21191;-63
2022/10/18 00:26:10;;;;;;;10.23;7.73;;;15.50;99.90;;;;;;5072518;28;20595;-63
2022/10/18 00:28:38;;;;;;;7.33;6.73;;;15.60;99.90;;;;;;5076055;28;20553;-63
2022/10/18 00:31:12;;;;;;;11.40;7.93;;;15.60;99.90;;;;;;5075528;28;20598;-63
2022/10/18 00:33:41;;;;;;;12.13;7.90;;;15.60;99.90;;;;;;5075874;28;20589;-63
2022/10/18 00:36:09;;;;;;;13.97;7.50;;;15.70;99.90;;;;;;5075650;28;20609;-63
2022/10/18 00:38:38;;;;;;;8.90;6.90;;;15.60;99.90;;;;;;5076045;28;20609;-64
2022/10/18 00:41:10;;;;;;;9.00;6.67;;;15.60;99.90;;;;;;5075616;28;20613;-64
2022/10/18 00:43:56;;;;;;;14.73;6.73;;;15.60;99.90;;;;;;5074360;28;20625;-64
2022/10/18 00:46:25;;;;;;;11.73;7.43;;;15.60;99.90;;;;;;5094044;28;20929;-64
2022/10/18 00:48:55;;;;;;;12.83;8.53;;;15.60;99.90;;;;;;5095589;28;20640;-64
2022/10/18 00:51:27;;;;;;;15.70;7.67;;;15.70;99.90;;;;;;5094487;28;20628;-64
2022/10/18 00:53:56;;;;;;;17.67;7.43;;;15.70;99.90;;;;;;5094738;28;21163;-64
2022/10/18 00:56:24;;;;;;;10.33;6.87;;;15.80;99.90;;;;;;5095975;28;20694;-63
2022/10/18 00:58:53;;;;;;;16.60;8.20;;;15.80;99.90;;;;;;5095523;28;20637;-63
2022/10/18 01:01:21;;;;;;;8.07;7.07;;;15.70;99.90;;;;;;5095314;28;20609;-65
2022/10/18 01:03:51;;;;;;;12.00;6.20;;;15.70;99.90;;;;;;5092659;28;20631;-64
2022/10/18 01:06:19;;;;;;;16.70;7.53;;;15.60;99.90;;;;;;5095361;28;20613;-63
2022/10/18 01:09:00;;;;;;;11.70;6.87;;;15.60;99.90;;;;;;5095330;28;20628;-63
2022/10/18 01:11:53;;;;;;;11.37;6.83;;;15.50;99.90;;;;;;5077094;28;20937;-63
2022/10/18 01:14:33;;;;;;;11.00;6.60;;;15.50;99.90;;;;;;5086789;28;20568;-64
2022/10/18 01:17:08;;;;;;;15.77;7.03;;;15.60;99.90;;;;;;5074790;28;20548;-64
2022/10/18 01:20:29;;;;;;;8.83;6.53;;;15.60;99.90;;;;;;5074527;28;20600;-63
2022/10/18 01:23:03;;;;;;;9.23;5.93;;;15.60;99.90;;;;;;5052016;28;20645;-65
2022/10/18 01:25:41;;;;;;;9.03;6.40;;;15.60;99.90;;;;;;5077226;28;20713;-65
2022/10/18 01:28:30;;;;;;;9.97;6.63;;;15.60;99.90;;;;;;5077704;28;20601;-64
2022/10/18 01:31:01;;;;;;;9.47;6.47;;;15.50;99.90;;;;;;5080259;28;20625;-64
2022/10/18 01:33:37;;;;;;;8.43;6.40;;;15.60;99.90;;;;;;5079556;28;20610;-64
2022/10/18 01:36:12;;;;;;;9.83;7.20;;;15.60;99.90;;;;;;5078806;28;20567;-63
2022/10/18 01:38:41;;;;;;;15.40;6.37;;;15.60;99.90;;;;;;5081048;28;20993;-64
2022/10/18 01:41:11;;;;;;;9.43;7.17;;;15.60;99.90;;;;;;5081241;28;20633;-64
2022/10/18 01:43:41;;;;;;;10.57;7.60;;;15.50;99.90;;;;;;5078371;28;20624;-64
2022/10/18 01:46:14;;;;;;;13.50;7.30;;;15.50;99.90;;;;;;5080664;28;20630;-64
2022/10/18 01:48:42;;;;;;;16.10;7.63;;;15.50;99.90;;;;;;5083423;28;20656;-64
2022/10/18 01:51:11;;;;;;;8.27;7.20;;;15.40;99.90;;;;;;5080005;28;20618;-64
2022/10/18 01:53:38;;;;;;;8.40;6.60;;;15.40;99.90;;;;;;5080581;28;20611;-64
2022/10/18 01:56:33;;;;;;;10.40;7.30;;;15.40;99.90;;;;;;5082307;28;20600;-64
2022/10/18 01:59:30;;;;;;;12.43;7.33;;;15.50;99.90;;;;;;5078015;28;21205;-64
2022/10/18 02:02:09;;;;;;;11.73;7.07;;;15.50;99.90;;;;;;5078331;28;20600;-64
2022/10/18 02:04:42;;;;;;;7.83;7.03;;;15.50;99.90;;;;;;5081381;28;20672;-64
2022/10/18 02:07:18;;;;;;;9.37;7.20;;;15.50;99.90;;;;;;5077128;28;21462;-64
2022/10/18 02:09:54;;;;;;;12.70;7.20;;;15.50;99.90;;;;;;5079858;28;20589;-64
2022/10/18 02:12:23;;;;;;;16.97;7.13;;;15.50;99.90;;;;;;5081262;28;20667;-64
2022/10/18 02:14:53;;;;;;;9.50;7.33;;;15.50;99.90;;;;;;5078090;28;21219;-65
2022/10/18 02:17:26;;;;;;;7.90;7.20;;;15.50;99.90;;;;;;5078034;28;21195;-65
2022/10/18 02:19:55;;;;;;;10.40;7.57;;;15.50;99.90;;;;;;5080952;28;20616;-65
2022/10/18 02:22:27;;;;;;;10.77;7.40;;;15.50;99.90;;;;;;5078032;28;20628;-65
2022/10/18 02:24:57;;;;;;;11.43;7.20;;;15.50;99.90;;;;;;5076125;28;21203;-64
2022/10/18 02:27:25;;;;;;;11.23;6.87;;;15.50;99.90;;;;;;5076751;28;20593;-64
2022/10/18 02:29:54;;;;;;;9.83;6.93;;;15.50;99.90;;;;;;5074625;28;20619;-64
2022/10/18 02:32:30;;;;;;;7.90;7.10;;;15.50;99.90;;;;;;5076321;28;20629;-64
2022/10/18 02:35:02;;;;;;;12.33;7.93;;;15.50;99.90;;;;;;5086944;28;20631;-64
2022/10/18 02:37:34;;;;;;;8.73;6.73;;;15.50;99.90;;;;;;5074226;28;20568;-65
2022/10/18 02:40:04;;;;;;;14.37;7.80;;;15.40;99.90;;;;;;5083676;28;20583;-68
2022/10/18 02:42:36;;;;;;;13.80;7.00;;;15.40;99.90;;;;;;5093834;28;20617;-64
2022/10/18 02:45:06;;;;;;;9.80;7.40;;;15.40;99.90;;;;;;5094162;28;21061;-64
2022/10/18 02:47:35;;;;;;;10.53;7.93;;;15.40;99.90;;;;;;5092223;28;20580;-64
2022/10/18 02:50:03;;;;;;;13.03;7.13;;;15.40;99.90;;;;;;5091982;28;20649;-64
2022/10/18 02:52:31;;;;;;;14.40;7.43;;;15.40;99.90;;;;;;5094079;28;20607;-64
2022/10/18 02:55:00;;;;;;;12.70;7.63;;;15.30;99.90;;;;;;5094183;28;20609;-64
2022/10/18 02:57:28;;;;;;;17.37;7.97;;;15.40;99.90;;;;;;5093731;28;20615;-64
2022/10/18 02:59:56;;;;;;;9.53;7.37;;;15.40;99.90;;;;;;5093484;28;21153;-64
2022/10/18 03:02:24;;;;;;;14.90;8.80;;;15.40;99.90;;;;;;5091305;28;20996;-64
2022/10/18 03:04:55;;;;;;;16.50;8.93;;;15.40;99.90;;;;;;5091959;28;21242;-64
2022/10/18 03:07:24;;;;;;;14.73;8.57;;;15.40;99.90;;;;;;5093202;28;20640;-64
2022/10/18 03:09:52;;;;;;;12.37;9.60;;;15.40;99.90;;;;;;5093040;28;21175;-64
2022/10/18 03:12:20;;;;;;;15.20;8.83;;;15.40;99.90;;;;;;5093643;28;20617;-64
2022/10/18 03:14:47;;;;;;;23.80;10.40;;;15.30;99.90;;;;;;5091962;28;20595;-64
2022/10/18 03:17:15;;;;;;;15.33;9.13;;;15.30;99.90;;;;;;5093554;28;21179;-64
2022/10/18 03:19:43;;;;;;;28.10;10.37;;;15.30;99.90;;;;;;5091416;28;20584;-64
2022/10/18 03:22:13;;;;;;;18.43;9.40;;;15.30;99.90;;;;;;5093957;28;20590;-64
2022/10/18 03:24:41;;;;;;;20.50;10.20;;;15.30;99.90;;;;;;5091776;28;20694;-64
2022/10/18 03:27:08;;;;;;;15.47;9.23;;;15.30;99.90;;;;;;5093604;28;20588;-64
2022/10/18 03:29:36;;;;;;;12.10;9.17;;;15.30;99.90;;;;;;5092201;28;21002;-64
2022/10/18 03:32:05;;;;;;;13.60;8.90;;;15.40;99.90;;;;;;5093185;28;20584;-64
2022/10/18 03:34:33;;;;;;;11.07;8.87;;;15.40;99.90;;;;;;5092067;28;20584;-64
2022/10/18 03:37:01;;;;;;;13.43;7.93;;;15.40;99.90;;;;;;5093485;28;20609;-64
2022/10/18 03:39:30;;;;;;;9.60;7.30;;;15.40;99.90;;;;;;5075593;28;20637;-64
2022/10/18 03:41:59;;;;;;;20.50;9.23;;;15.50;99.90;;;;;;5089326;28;21003;-64
2022/10/18 03:44:27;;;;;;;21.37;9.17;;;15.50;99.90;;;;;;5091919;28;20632;-64
2022/10/18 03:46:55;;;;;;;14.13;9.83;;;15.50;99.90;;;;;;5079436;28;21180;-64
2022/10/18 03:49:23;;;;;;;19.00;9.50;;;15.50;99.90;;;;;;5071232;28;20627;-64
2022/10/18 03:51:51;;;;;;;10.50;9.50;;;15.50;99.90;;;;;;5073234;28;20961;-64
2022/10/18 03:54:20;;;;;;;12.30;8.93;;;15.50;99.90;;;;;;5072712;28;20614;-65
2022/10/18 03:56:49;;;;;;;17.83;9.70;;;15.50;99.90;;;;;;5072741;28;20642;-63
2022/10/18 03:59:17;;;;;;;10.20;8.73;;;15.50;99.90;;;;;;5087322;28;20682;-63
2022/10/18 04:01:45;;;;;;;15.50;9.57;;;15.60;99.90;;;;;;5092255;28;20613;-63
2022/10/18 04:04:13;;;;;;;12.67;10.33;;;15.60;99.90;;;;;;5091992;28;20664;-63
2022/10/18 04:06:41;;;;;;;12.73;8.60;;;15.60;99.90;;;;;;5092623;28;20621;-63
2022/10/18 04:09:10;;;;;;;13.57;8.87;;;15.70;99.90;;;;;;5093122;28;20625;-63
2022/10/18 04:11:38;;;;;;;19.83;8.93;;;15.70;99.90;;;;;;5092952;28;20653;-63
2022/10/18 04:14:08;;;;;;;10.97;9.73;;;15.70;99.90;;;;;;5092371;28;20618;-63
2022/10/18 04:16:35;;;;;;;15.10;8.83;;;15.70;99.90;;;;;;5092430;28;20608;-63
2022/10/18 04:19:03;;;;;;;11.57;9.73;;;15.70;99.90;;;;;;5092416;28;20608;-63
2022/10/18 04:21:31;;;;;;;13.13;9.53;;;15.70;99.90;;;;;;5092257;28;20617;-63
2022/10/18 04:23:59;;;;;;;9.60;8.67;;;15.70;99.90;;;;;;5091926;28;20621;-63
2022/10/18 04:26:27;;;;;;;12.77;9.20;;;15.70;99.90;;;;;;5092211;28;20628;-63
2022/10/18 04:28:55;;;;;;;13.80;9.27;;;15.70;99.90;;;;;;5092002;28;20617;-63
2022/10/18 04:31:25;;;;;;;11.20;9.43;;;15.70;99.90;;;;;;5092136;28;20587;-63
2022/10/18 04:33:53;;;;;;;10.53;9.40;;;15.70;99.90;;;;;;5091547;28;20999;-63
2022/10/18 04:36:21;;;;;;;10.83;9.40;;;15.70;99.90;;;;;;5091794;28;20625;-63
2022/10/18 04:38:49;;;;;;;12.20;9.97;;;15.70;99.90;;;;;;5092145;28;20580;-63
2022/10/18 04:41:17;;;;;;;10.30;9.20;;;15.70;99.90;;;;;;5092187;28;21170;-63
2022/10/18 04:43:45;;;;;;;13.80;9.77;;;15.70;99.90;;;;;;5090179;28;20980;-64
2022/10/18 04:46:13;;;;;;;15.13;9.17;;;15.70;99.90;;;;;;5083568;28;20664;-63
2022/10/18 04:48:42;;;;;;;12.30;8.53;;;15.70;99.90;;;;;;5071207;28;20624;-63
2022/10/18 04:51:10;;;;;;;9.70;7.70;;;15.80;99.90;;;;;;5081196;28;20628;-63
2022/10/18 04:53:38;;;;;;;8.53;7.73;;;15.80;99.90;;;;;;5091158;28;20617;-63
2022/10/18 04:56:07;;;;;;;22.20;8.50;;;15.80;99.90;;;;;;5092322;28;20615;-63
2022/10/18 04:58:35;;;;;;;14.37;9.10;;;15.80;99.90;;;;;;5090240;28;20606;-63
2022/10/18 05:01:05;;;;;;;9.03;7.50;;;15.90;99.90;;;;;;5090469;28;20621;-64
2022/10/18 05:03:33;;;;;;;12.77;7.90;;;15.90;99.90;;;;;;5091040;28;20997;-63
2022/10/18 05:06:02;;;;;;;11.23;7.80;;;15.90;99.90;;;;;;5091994;28;20656;-64
2022/10/18 05:08:32;;;;;;;9.50;7.80;;;16.00;99.90;;;;;;5091099;28;20943;-63
2022/10/18 05:11:00;;;;;;;11.13;8.10;;;16.00;99.90;;;;;;5091700;28;20952;-63
2022/10/18 05:13:28;;;;;;;8.37;7.57;;;16.00;99.90;;;;;;5092128;28;21415;-63
2022/10/18 05:15:58;;;;;;;12.70;9.17;;;16.00;99.90;;;;;;5095439;28;20613;-63
2022/10/18 05:18:26;;;;;;;11.03;7.20;;;15.90;99.90;;;;;;5095223;28;20610;-63
2022/10/18 05:20:54;;;;;;;11.30;7.20;;;16.00;99.90;;;;;;5090139;28;20636;-63
2022/10/18 05:23:24;;;;;;;11.40;8.30;;;16.00;99.90;;;;;;5081007;28;21171;-63
2022/10/18 05:25:52;;;;;;;12.30;9.97;;;16.00;99.90;;;;;;5088517;28;20664;-63
2022/10/18 05:28:19;;;;;;;31.20;18.83;;;16.00;99.90;;;;;;5082833;28;20648;-63
2022/10/18 05:30:48;;;;;;;30.30;16.30;;;15.90;99.90;;;;;;5081280;28;20625;-63
2022/10/18 05:33:15;;;;;;;17.17;11.80;;;15.90;99.90;;;;;;5077587;28;20970;-63
2022/10/18 05:35:43;;;;;;;11.80;9.10;;;16.00;99.90;;;;;;5092170;28;20600;-63
2022/10/18 05:38:11;;;;;;;9.17;8.20;;;16.00;99.90;;;;;;5085214;28;20634;-63
2022/10/18 05:40:41;;;;;;;11.83;8.40;;;15.90;99.90;;;;;;5086956;28;20612;-63
2022/10/18 05:43:08;;;;;;;13.43;8.33;;;15.90;99.90;;;;;;5083524;28;20618;-64
2022/10/18 05:45:36;;;;;;;16.40;8.00;;;15.90;99.90;;;;;;5078669;28;20636;-63
2022/10/18 05:48:06;;;;;;;10.90;7.93;;;16.00;99.90;;;;;;5083377;28;20698;-62
2022/10/18 05:50:34;;;;;;;17.63;8.43;;;16.00;99.90;;;;;;5090215;28;20612;-62
2022/10/18 05:53:02;;;;;;;12.23;8.27;;;16.00;99.90;;;;;;5081308;28;20607;-63
2022/10/18 05:55:30;;;;;;;13.80;8.50;;;16.00;99.90;;;;;;5079826;28;20617;-62
2022/10/18 05:57:59;;;;;;;9.80;8.83;;;16.00;99.90;;;;;;5083207;28;20687;-62
2022/10/18 06:00:27;;;;;;;10.97;8.37;;;16.00;99.90;;;;;;5085088;28;20835;-67
2022/10/18 06:02:55;;;;;;;17.73;8.63;;;16.10;99.90;;;;;;5082927;28;20618;-63
2022/10/18 06:05:32;;;;;;;12.27;8.23;;;16.10;99.90;;;;;;5081491;28;20711;-64
2022/10/18 06:08:00;;;;;;;12.10;8.60;;;16.10;99.90;;;;;;5080629;28;21236;-64
2022/10/18 06:10:28;;;;;;;7.57;6.83;;;16.10;99.90;;;;;;5083096;28;21180;-64
2022/10/18 06:12:56;;;;;;;17.30;9.30;;;16.10;99.90;;;;;;5092454;28;21170;-64
2022/10/18 06:15:25;;;;;;;8.83;7.90;;;16.10;99.90;;;;;;5088882;28;20633;-64
2022/10/18 06:17:53;;;;;;;12.63;8.87;;;16.10;99.90;;;;;;5080089;28;20634;-64
2022/10/18 06:20:21;;;;;;;12.27;9.10;;;16.20;99.90;;;;;;5070680;28;20626;-64
2022/10/18 06:22:52;;;;;;;11.87;9.50;;;16.20;99.90;;;;;;5077323;28;20647;-64
2022/10/18 06:25:21;;;;;;;10.73;8.13;;;16.30;99.90;;;;;;5085931;28;21208;-64
2022/10/18 06:27:49;;;;;;;13.67;7.00;;;16.20;99.90;;;;;;5091920;28;20632;-64
2022/10/18 06:30:17;;;;;;;9.17;7.30;;;16.30;99.90;;;;;;5078552;28;20626;-64
2022/10/18 06:32:46;;;;;;;15.67;8.70;;;16.30;99.90;;;;;;5085613;28;20696;-64
2022/10/18 06:35:15;;;;;;;19.30;9.17;;;16.40;99.90;;;;;;5078576;28;20628;-64
2022/10/18 06:37:42;;;;;;;20.67;9.30;;;16.50;99.90;;;;;;5093216;28;20605;-64
2022/10/18 06:40:11;;;;;;;12.50;8.50;;;16.50;99.90;;;;;;5081070;28;20702;-64
2022/10/18 06:42:39;;;;;;;7.90;7.10;;;16.60;99.90;;;;;;5065012;28;20632;-64
2022/10/18 06:45:08;;;;;;;9.80;8.80;;;16.60;99.90;;;;;;5086255;28;20662;-64
2022/10/18 06:47:36;;;;;;;10.60;8.33;;;16.50;99.90;;;;;;5084896;28;20622;-65
2022/10/18 06:50:07;;;;;;;14.83;8.00;;;16.50;99.90;;;;;;5079190;28;20653;-64
2022/10/18 06:52:35;;;;;;;12.97;7.97;;;16.50;99.90;;;;;;5072959;28;20590;-64
2022/10/18 06:55:03;;;;;;;15.23;9.07;;;16.40;99.90;;;;;;5076895;28;20632;-64
2022/10/18 06:57:31;;;;;;;9.23;8.33;;;16.40;99.90;;;;;;5089946;28;20656;-64
2022/10/18 06:59:59;;;;;;;19.13;9.90;;;16.40;99.90;;;;;;5076989;28;20996;-64
2022/10/18 07:02:27;;;;;;;14.00;9.57;;;16.40;99.90;;;;;;5076686;28;20626;-64
2022/10/18 07:04:55;;;;;;;8.17;6.83;;;16.40;99.90;;;;;;5072834;28;20622;-64
2022/10/18 07:07:24;;;;;;;20.87;10.67;;;16.40;99.90;;;;;;5082545;28;20664;-64
2022/10/18 07:09:52;;;;;;;19.07;10.07;;;16.40;99.90;;;;;;5084697;28;20622;-64
2022/10/18 07:12:20;;;;;;;15.07;9.90;;;16.50;99.90;;;;;;5090184;28;20621;-64
2022/10/18 07:14:48;;;;;;;10.33;7.83;;;16.50;99.90;;;;;;5081694;28;20624;-64
2022/10/18 07:17:16;;;;;;;14.70;9.57;;;16.50;99.90;;;;;;5073059;28;20614;-63
2022/10/18 07:19:44;;;;;;;17.50;9.37;;;16.50;99.90;;;;;;5076668;28;20973;-62
2022/10/18 07:22:12;;;;;;;16.30;10.20;;;16.50;99.90;;;;;;5072589;28;20630;-62
2022/10/18 07:24:41;;;;;;;17.37;10.60;;;16.40;99.90;;;;;;5089777;28;20629;-62
2022/10/18 07:27:09;;;;;;;10.90;9.47;;;16.50;99.90;;;;;;5078780;28;20668;-62
2022/10/18 07:29:38;;;;;;;9.80;8.77;;;16.40;99.90;;;;;;5089210;28;20653;-62
2022/10/18 07:32:06;;;;;;;11.70;7.20;;;16.50;99.90;;;;;;5075581;28;20627;-62
2022/10/18 07:34:34;;;;;;;8.10;7.40;;;16.50;99.90;;;;;;5071942;28;20610;-62
2022/10/18 07:37:02;;;;;;;8.00;6.27;;;16.60;99.90;;;;;;5079492;28;20635;-62
2022/10/18 07:39:37;;;;;;;15.93;6.70;;;16.70;99.90;;;;;;5088597;28;20622;-65
2022/10/18 07:42:36;;;;;;;8.67;6.97;;;16.70;99.90;;;;;;5078834;28;20587;-63
2022/10/18 07:45:04;;;;;;;15.63;10.50;;;16.80;99.90;;;;;;5091270;28;20629;-63
2022/10/18 07:47:32;;;;;;;8.83;6.90;;;16.90;99.90;;;;;;5072512;28;21092;-63
2022/10/18 07:50:00;;;;;;;7.53;5.23;;;16.90;99.90;;;;;;5072757;28;20980;-63
2022/10/18 07:52:28;;;;;;;7.23;6.30;;;16.90;99.90;;;;;;5072588;28;21031;-63
2022/10/18 07:54:56;;;;;;;6.00;5.50;;;16.90;99.90;;;;;;5080594;28;21194;-64
2022/10/18 07:57:24;;;;;;;13.13;6.07;;;17.00;99.90;;;;;;5080608;28;20629;-63
2022/10/18 08:00:08;;;;;;;9.50;6.60;;;17.00;99.90;;;;;;5087652;28;21111;-63
2022/10/18 08:02:39;;;;;;;7.80;6.00;;;17.10;99.90;;;;;;5089799;28;20674;-63
2022/10/18 08:05:08;;;;;;;13.57;7.23;;;17.00;99.90;;;;;;5077981;28;20675;-63
2022/10/18 08:07:35;;;;;;;11.03;7.80;;;16.90;99.90;;;;;;5091935;28;20656;-64
2022/10/18 08:10:04;;;;;;;8.90;6.97;;;16.90;99.90;;;;;;5089135;28;20613;-64
2022/10/18 08:12:32;;;;;;;8.70;7.80;;;16.90;99.90;;;;;;5086437;28;20629;-63
2022/10/18 08:15:00;;;;;;;7.77;6.13;;;16.90;99.90;;;;;;5076338;28;20633;-64
2022/10/18 08:17:29;;;;;;;8.13;6.23;;;17.00;99.90;;;;;;5087127;28;21208;-63
2022/10/18 08:19:57;;;;;;;13.10;7.00;;;17.10;99.90;;;;;;5087602;28;20617;-63
2022/10/18 08:22:25;;;;;;;11.93;6.10;;;17.20;99.90;;;;;;5085802;28;20649;-64
2022/10/18 08:24:53;;;;;;;6.73;5.53;;;17.30;99.90;;;;;;5091722;28;20647;-64
2022/10/18 08:27:21;;;;;;;6.87;5.00;;;17.40;99.90;;;;;;5099790;28;20666;-64
2022/10/18 08:29:49;;;;;;;8.33;5.33;;;17.40;99.90;;;;;;5081830;28;20628;-64
2022/10/18 08:32:17;;;;;;;4.57;4.17;;;17.50;99.90;;;;;;5086857;28;20618;-64
2022/10/18 08:34:47;;;;;;;7.63;6.20;;;17.50;99.90;;;;;;5088446;28;20633;-64
2022/10/18 08:37:15;;;;;;;11.90;5.50;;;17.60;99.90;;;;;;5079391;28;20598;-64
2022/10/18 08:39:43;;;;;;;5.10;4.70;;;17.70;99.90;;;;;;5089096;28;20648;-64
2022/10/18 08:42:28;;;;;;;5.87;5.30;;;17.90;99.90;;;;;;5081821;28;20986;-64
2022/10/18 08:44:56;;;;;;;7.30;4.73;;;18.00;99.90;;;;;;5072418;28;20602;-64
2022/10/18 08:47:33;;;;;;;6.37;4.73;;;18.10;99.90;;;;;;5089497;28;20654;-64
2022/10/18 08:50:05;;;;;;;8.53;5.13;;;18.20;99.90;;;;;;5075400;28;20646;-65
2022/10/18 08:52:38;;;;;;;6.37;4.77;;;18.50;99.90;;;;;;5079982;28;20607;-64
2022/10/18 08:55:14;;;;;;;7.97;4.37;;;18.80;99.90;;;;;;5091471;28;20616;-64
2022/10/18 08:57:42;;;;;;;5.30;4.80;;;18.90;99.90;;;;;;5093847;28;20697;-64
2022/10/18 09:00:16;;;;;;;9.97;4.90;;;18.80;99.90;;;;;;5090629;28;21068;-64
2022/10/18 09:03:00;;;;;;;7.83;4.17;;;18.90;99.90;;;;;;5083214;28;20613;-64
2022/10/18 09:05:39;;;;;;;8.10;4.30;;;18.90;99.90;;;;;;5093866;28;20592;-64
2022/10/18 09:08:40;;;;;;;4.20;3.90;;;18.90;99.90;;;;;;5079499;28;21006;-65
2022/10/18 09:11:20;;;;;;;5.50;4.93;;;19.00;99.90;;;;;;5095511;28;20585;-65
2022/10/18 09:14:05;;;;;;;6.63;4.83;;;18.90;99.90;;;;;;5091478;28;20621;-65
2022/10/18 09:16:40;;;;;;;10.27;5.13;;;18.80;99.90;;;;;;5090006;28;20607;-64
2022/10/18 09:19:17;;;;;;;9.10;4.53;;;18.90;99.90;;;;;;5083723;28;20573;-64
2022/10/18 09:21:51;;;;;;;5.43;4.37;;;19.30;99.90;;;;;;5080874;28;20610;-63
2022/10/18 09:24:27;;;;;;;7.40;4.27;;;19.20;99.90;;;;;;5076750;28;20605;-63
2022/10/18 09:27:03;;;;;;;5.43;4.20;;;19.20;99.90;;;;;;5084928;28;20648;-63
2022/10/18 09:29:45;;;;;;;5.07;4.20;;;19.30;99.90;;;;;;5094194;28;20588;-63
2022/10/18 09:32:25;;;;;;;4.43;4.03;;;19.20;99.90;;;;;;5094204;28;20601;-64
2022/10/18 09:34:57;;;;;;;5.50;4.33;;;19.10;99.90;;;;;;5094460;28;21146;-64
2022/10/18 09:37:30;;;;;;;5.77;4.40;;;19.20;99.90;;;;;;5095250;28;20644;-64
2022/10/18 09:40:05;;;;;;;4.27;3.83;;;19.10;99.90;;;;;;5094866;28;21181;-64
2022/10/18 09:42:37;;;;;;;7.80;4.60;;;19.20;99.90;;;;;;5094581;28;21263;-64
2022/10/18 09:45:19;;;;;;;7.50;4.80;;;19.30;99.90;;;;;;5091417;28;20971;-64
2022/10/18 09:47:53;;;;;;;11.07;4.27;;;19.40;99.90;;;;;;5073525;28;20642;-64
2022/10/18 09:50:27;;;;;;;4.83;4.53;;;19.60;99.90;;;;;;5089156;28;20661;-64
2022/10/18 09:53:06;;;;;;;9.03;3.77;;;19.80;99.90;;;;;;5074454;28;20575;-64
2022/10/18 09:55:38;;;;;;;4.57;4.27;;;19.90;99.90;;;;;;5074005;28;21373;-64
2022/10/18 09:58:10;;;;;;;4.53;4.13;;;19.70;99.90;;;;;;5078948;28;20644;-64
2022/10/18 10:00:45;;;;;;;6.10;3.90;;;19.70;99.90;;;;;;5085802;28;20637;-64
2022/10/18 10:03:14;;;;;;;7.10;4.00;;;19.60;99.90;;;;;;5088132;28;20605;-64
2022/10/18 10:05:43;;;;;;;4.03;3.53;;;19.60;99.90;;;;;;5089218;28;20622;-65
2022/10/18 10:08:12;;;;;;;5.03;3.93;;;19.60;99.90;;;;;;5089098;28;20671;-65
2022/10/18 10:10:45;;;;;;;3.97;3.70;;;19.70;99.90;;;;;;5087715;28;21648;-65
2022/10/18 10:13:20;;;;;;;4.20;4.00;;;19.70;99.90;;;;;;5090357;28;20614;-64
2022/10/18 10:15:54;;;;;;;5.60;3.90;;;19.70;99.90;;;;;;5086353;28;21033;-65
2022/10/18 10:18:25;;;;;;;6.67;3.67;;;20.20;99.90;;;;;;5089024;28;20617;-65
2022/10/18 10:20:54;;;;;;;9.23;4.30;;;20.30;99.90;;;;;;5089007;28;20632;-65
2022/10/18 10:23:27;;;;;;;4.40;4.00;;;20.20;99.90;;;;;;5090320;28;20625;-65
2022/10/18 10:25:57;;;;;;;4.47;4.10;;;20.10;99.90;;;;;;5089913;28;20616;-65
2022/10/18 10:28:28;;;;;;;4.00;3.60;;;20.20;99.90;;;;;;5088785;28;21083;-65
2022/10/18 10:31:17;;;;;;;7.40;3.90;;;20.40;99.90;;;;;;5090241;28;20643;-65
2022/10/18 10:33:47;;;;;;;11.47;3.63;;;21.00;99.90;;;;;;5089007;28;20984;-66
2022/10/18 10:36:20;;;;;;;4.13;3.83;;;21.20;99.90;;;;;;5087804;28;20632;-65
2022/10/18 10:39:04;;;;;;;4.57;3.20;;;21.20;99.90;;;;;;5085482;28;20622;-65
2022/10/18 10:41:33;;;;;;;4.33;3.93;;;21.20;99.90;;;;;;5085918;28;20653;-65
2022/10/18 10:44:03;;;;;;;6.30;3.27;;;21.10;99.90;;;;;;5089588;28;20633;-65
2022/10/18 10:46:36;;;;;;;4.07;3.77;;;21.00;99.90;;;;;;5090184;28;20635;-65
2022/10/18 10:49:05;;;;;;;4.37;3.97;;;21.50;99.90;;;;;;5089980;28;20669;-65
2022/10/18 10:51:36;;;;;;;4.40;4.10;;;21.00;99.90;;;;;;5089270;28;20626;-65
2022/10/18 10:54:11;;;;;;;4.27;3.97;;;21.10;99.90;;;;;;5104963;28;20632;-65
2022/10/18 10:56:54;;;;;;;5.13;3.83;;;20.90;99.90;;;;;;5086319;28;20659;-65
2022/10/18 10:59:25;;;;;;;6.70;3.60;;;20.60;99.90;;;;;;5088144;28;20972;-65
2022/10/18 11:02:19;;;;;;;15.33;3.40;;;20.60;99.90;;;;;;5086619;28;20618;-65
2022/10/18 11:04:49;;;;;;;4.00;3.70;;;20.50;99.90;;;;;;5087834;28;20621;-65
2022/10/18 11:07:23;;;;;;;7.73;3.90;;;20.80;99.90;;;;;;5086848;28;20633;-65
2022/10/18 11:10:01;;;;;;;3.80;3.57;;;20.90;99.90;;;;;;5088453;28;20605;-65
2022/10/18 11:12:33;;;;;;;4.63;3.67;;;21.00;99.90;;;;;;5087177;28;20617;-65
2022/10/18 11:15:18;;;;;;;3.80;3.30;;;20.70;99.90;;;;;;5088478;28;21201;-65
2022/10/18 11:17:56;;;;;;;3.87;3.10;;;20.70;99.90;;;;;;5087504;28;20597;-65
2022/10/18 11:20:27;;;;;;;4.70;3.30;;;20.90;99.90;;;;;;5088818;28;20957;-65
2022/10/18 11:23:01;;;;;;;3.67;3.43;;;21.10;99.90;;;;;;5082574;28;20966;-65
2022/10/18 11:25:58;;;;;;;4.17;3.77;;;21.10;99.90;;;;;;5087595;28;20617;-65
2022/10/18 11:28:45;;;;;;;3.77;3.47;;;21.10;99.90;;;;;;5088605;28;20700;-65
2022/10/18 11:31:22;;;;;;;3.50;3.20;;;21.00;99.90;;;;;;5085378;28;20616;-64
2022/10/18 11:34:07;;;;;;;5.07;3.63;;;21.30;99.90;;;;;;5085109;28;20685;-64
2022/10/18 11:36:45;;;;;;;3.30;3.00;;;21.30;99.90;;;;;;5085434;28;20609;-64
2022/10/18 11:39:25;;;;;;;4.10;3.40;;;21.80;99.90;;;;;;5088416;28;20612;-64
2022/10/18 11:42:02;;;;;;;3.00;2.90;;;21.70;99.90;;;;;;5085691;28;20632;-64
2022/10/18 11:44:39;;;;;;;2.80;2.60;;;22.80;99.90;;;;;;5086129;28;20640;-65
2022/10/18 11:47:14;;;;;;;3.23;2.47;;;23.80;99.90;;;;;;5086304;28;20614;-65
2022/10/18 11:50:01;;;;;;;3.30;3.00;;;23.10;99.90;;;;;;5088171;28;20661;-64
2022/10/18 11:52:36;;;;;;;3.30;3.10;;;22.40;99.90;;;;;;5086120;28;22439;-64
2022/10/18 11:55:39;;;;;;;3.60;3.30;;;22.30;99.90;;;;;;5088483;28;20616;-64
2022/10/18 11:58:22;;;;;;;3.47;3.27;;;22.00;99.90;;;;;;5085739;28;20648;-64
2022/10/18 12:00:55;;;;;;;3.53;3.33;;;22.00;99.90;;;;;;5087084;28;20635;-64
2022/10/18 12:03:40;;;;;;;5.40;3.87;;;21.90;99.90;;;;;;5087041;28;20625;-64
2022/10/18 12:06:14;;;;;;;5.40;4.13;;;22.10;99.90;;;;;;5086075;28;20616;-64
2022/10/18 12:08:46;;;;;;;3.70;3.53;;;22.20;99.90;;;;;;5087846;28;20652;-64
2022/10/18 12:11:16;;;;;;;4.67;4.37;;;22.20;99.90;;;;;;5085938;28;20655;-64
2022/10/18 12:13:49;;;;;;;11.63;5.40;;;22.00;99.90;;;;;;5084750;28;20628;-64
2022/10/18 12:16:21;;;;;;;4.47;4.17;;;21.80;99.90;;;;;;5083377;28;20711;-64
2022/10/18 12:18:55;;;;;;;5.60;5.17;;;22.00;99.90;;;;;;5084157;28;20625;-64
2022/10/18 12:21:26;;;;;;;5.10;4.80;;;22.20;99.90;;;;;;5086562;28;20990;-64
2022/10/18 12:23:58;;;;;;;5.23;4.80;;;22.20;99.90;;;;;;5089459;28;20624;-64
2022/10/18 12:26:28;;;;;;;5.27;4.60;;;22.10;99.90;;;;;;5089344;28;20974;-64
2022/10/18 12:29:17;;;;;;;5.93;5.30;;;22.30;99.90;;;;;;5089473;28;20637;-65
2022/10/18 12:31:48;;;;;;;5.60;5.20;;;22.20;99.90;;;;;;5089302;28;21182;-65
2022/10/18 12:34:27;;;;;;;5.43;5.13;;;22.20;99.90;;;;;;5090540;28;20947;-65
2022/10/18 12:37:15;;;;;;;7.03;5.40;;;22.30;99.90;;;;;;5087058;28;20624;-65
2022/10/18 12:39:46;;;;;;;5.80;5.40;;;22.50;99.90;;;;;;5085898;28;20652;-65
2022/10/18 12:42:20;;;;;;;5.30;4.80;;;22.50;99.90;;;;;;5090621;28;20646;-65
2022/10/18 12:45:00;;;;;;;5.60;4.63;;;22.60;99.90;;;;;;5090584;28;20670;-65
2022/10/18 12:47:29;;;;;;;4.60;4.30;;;22.80;99.90;;;;;;5090543;28;20608;-66
2022/10/18 12:49:59;;;;;;;4.47;4.27;;;22.60;99.90;;;;;;5087583;28;20653;-65
2022/10/18 12:52:29;;;;;;;5.20;4.80;;;22.20;99.90;;;;;;5091521;28;21193;-64
2022/10/18 12:55:27;;;;;;;4.53;4.33;;;22.20;99.90;;;;;;5092032;28;20629;-64
2022/10/18 12:58:04;;;;;;;4.77;4.50;;;21.80;99.90;;;;;;5090597;28;21092;-64
2022/10/18 13:00:53;;;;;;;12.53;5.20;;;21.60;99.90;;;;;;5091167;28;20604;-64
2022/10/18 13:03:41;;;;;;;4.70;4.50;;;21.70;99.90;;;;;;5091152;28;20617;-64
2022/10/18 13:06:09;;;;;;;4.13;3.93;;;21.50;99.90;;;;;;5090616;28;20601;-64